Time;durP1;ratioP1;P1;durP2;ratioP2;P2;SDS_P1;SDS_P2;PMS_P1;PMS_P2;Temp;Humidity;BMP_temperature;BMP_pressure;BME280_temperature;BME280_humidity;BME280_pressure;Samples;Min_cycle;Max_cycle;Signal;HPM_P1;HPM_P2
2021/05/21 04:02:08;;;;;;;1.67;1.10;;;12.40;99.90;;;;;;5252507;23;20966;-67
2021/05/21 04:04:34;;;;;;;1.37;1.37;;;12.30;99.90;;;;;;5035221;28;20455;-66
2021/05/21 04:07:00;;;;;;;1.37;1.27;;;12.20;99.90;;;;;;5035087;28;20487;-66
2021/05/21 04:09:26;;;;;;;1.40;1.30;;;12.20;99.90;;;;;;5035216;28;20452;-66
2021/05/21 04:11:53;;;;;;;2.40;1.73;;;12.20;99.90;;;;;;5044127;28;20474;-66
2021/05/21 04:14:19;;;;;;;1.30;1.30;;;12.20;99.90;;;;;;5041228;28;20452;-66
2021/05/21 04:16:45;;;;;;;1.40;1.30;;;12.20;99.90;;;;;;5035023;28;20458;-65
2021/05/21 04:19:12;;;;;;;1.53;1.43;;;12.10;99.90;;;;;;5036259;28;20834;-65
2021/05/21 04:21:38;;;;;;;1.20;1.10;;;12.20;99.90;;;;;;5035867;28;20480;-66
2021/05/21 04:24:06;;;;;;;1.37;0.83;;;12.20;99.90;;;;;;5036384;28;20484;-66
2021/05/21 04:26:32;;;;;;;1.63;1.23;;;12.20;99.90;;;;;;5035649;28;20490;-65
2021/05/21 04:28:59;;;;;;;2.80;1.30;;;12.20;99.90;;;;;;5034625;28;20458;-65
2021/05/21 04:31:25;;;;;;;2.50;1.50;;;12.30;99.90;;;;;;5034585;28;20480;-65
2021/05/21 04:33:52;;;;;;;2.33;1.30;;;12.30;99.90;;;;;;5034546;28;20923;-66
2021/05/21 04:36:20;;;;;;;2.63;1.10;;;12.40;99.90;;;;;;5034564;28;20456;-65
2021/05/21 04:38:46;;;;;;;1.30;1.30;;;12.40;99.90;;;;;;5034393;28;20444;-66
2021/05/21 04:41:12;;;;;;;2.23;1.23;;;12.40;99.90;;;;;;5034684;28;20476;-65
2021/05/21 04:43:39;;;;;;;1.30;1.20;;;12.40;99.90;;;;;;5034404;28;20771;-66
2021/05/21 04:46:06;;;;;;;1.10;1.10;;;12.40;99.90;;;;;;5034247;28;20460;-65
2021/05/21 04:48:33;;;;;;;1.50;1.43;;;12.50;99.90;;;;;;5034221;28;20526;-65
2021/05/21 04:50:59;;;;;;;1.50;1.20;;;12.50;99.90;;;;;;5034897;28;20498;-65
2021/05/21 04:53:26;;;;;;;1.10;1.10;;;12.50;99.90;;;;;;5034588;28;20508;-65
2021/05/21 04:55:53;;;;;;;1.60;1.40;;;12.60;99.90;;;;;;5034625;28;20482;-66
2021/05/21 04:58:19;;;;;;;1.80;1.10;;;12.60;99.90;;;;;;5034756;28;20456;-66
2021/05/21 05:00:46;;;;;;;1.50;1.40;;;12.60;99.90;;;;;;5034365;28;21073;-66
2021/05/21 05:03:16;;;;;;;1.30;1.20;;;12.70;99.90;;;;;;5035738;28;20448;-66
2021/05/21 05:05:43;;;;;;;1.87;1.77;;;12.80;99.90;;;;;;5034780;28;20504;-66
2021/05/21 05:08:10;;;;;;;1.20;1.20;;;12.90;99.90;;;;;;5034693;28;20476;-65
2021/05/21 05:10:37;;;;;;;1.30;1.30;;;13.00;99.90;;;;;;5034718;28;20474;-67
2021/05/21 05:13:03;;;;;;;1.27;1.17;;;13.10;99.90;;;;;;5035133;28;20462;-66
2021/05/21 05:15:32;;;;;;;1.10;1.00;;;13.10;99.90;;;;;;5034222;28;20452;-66
2021/05/21 05:17:59;;;;;;;1.00;1.00;;;13.10;99.90;;;;;;5034421;28;20448;-65
2021/05/21 05:20:25;;;;;;;1.10;1.03;;;13.00;99.90;;;;;;5034054;28;20491;-64
2021/05/21 05:22:52;;;;;;;1.10;1.00;;;13.00;99.90;;;;;;5034282;28;20509;-66
2021/05/21 05:25:19;;;;;;;3.40;1.30;;;13.00;99.90;;;;;;5034193;28;20463;-65
2021/05/21 05:27:46;;;;;;;1.17;1.17;;;13.10;99.90;;;;;;5033890;28;20472;-65
2021/05/21 05:30:14;;;;;;;1.20;1.10;;;13.10;99.90;;;;;;5035241;28;20467;-65
2021/05/21 05:32:40;;;;;;;1.70;1.60;;;13.20;99.90;;;;;;5035583;28;20456;-65
2021/05/21 05:35:07;;;;;;;1.20;1.20;;;13.20;99.90;;;;;;5036000;28;20456;-64
2021/05/21 05:37:33;;;;;;;1.30;1.30;;;13.20;99.90;;;;;;5035057;28;20452;-64
2021/05/21 05:40:00;;;;;;;1.23;1.20;;;13.20;99.90;;;;;;5035221;28;20505;-65
2021/05/21 05:42:26;;;;;;;1.10;1.10;;;13.30;99.90;;;;;;5038206;28;20859;-66
2021/05/21 05:44:53;;;;;;;2.77;1.10;;;13.40;99.90;;;;;;5043700;28;20811;-65
2021/05/21 05:47:19;;;;;;;1.03;1.00;;;13.60;99.90;;;;;;5034194;28;20480;-65
2021/05/21 05:49:46;;;;;;;1.23;1.17;;;13.70;99.90;;;;;;5035893;28;20463;-65
2021/05/21 05:52:12;;;;;;;1.70;1.10;;;13.70;99.90;;;;;;5037914;28;20822;-65
2021/05/21 05:54:38;;;;;;;0.80;0.80;;;13.80;99.90;;;;;;5037823;28;20463;-65
2021/05/21 05:57:05;;;;;;;1.00;1.00;;;13.90;99.90;;;;;;5038124;28;20514;-65
2021/05/21 05:59:31;;;;;;;2.33;1.23;;;14.00;99.90;;;;;;5037567;28;20451;-65
2021/05/21 06:01:58;;;;;;;3.07;1.00;;;14.20;99.90;;;;;;5037139;28;20484;-65
2021/05/21 06:04:25;;;;;;;4.53;0.93;;;14.30;99.90;;;;;;5037127;28;20458;-65
2021/05/21 06:06:51;;;;;;;1.13;1.13;;;14.40;99.90;;;;;;5037176;28;20452;-65
2021/05/21 06:09:17;;;;;;;1.40;1.30;;;14.50;99.90;;;;;;5037437;28;20462;-65
2021/05/21 06:11:44;;;;;;;1.33;1.20;;;14.50;99.90;;;;;;5036516;28;20977;-65
2021/05/21 06:14:10;;;;;;;6.07;1.37;;;14.50;99.90;;;;;;5037219;28;20455;-65
2021/05/21 06:16:36;;;;;;;1.27;0.93;;;14.50;99.90;;;;;;5037010;28;20456;-66
2021/05/21 06:19:04;;;;;;;1.00;0.93;;;14.60;99.90;;;;;;5036961;28;20444;-65
2021/05/21 06:21:30;;;;;;;3.23;1.37;;;14.80;99.90;;;;;;5036381;28;20984;-65
2021/05/21 06:23:57;;;;;;;2.10;1.27;;;14.90;99.90;;;;;;5036351;28;20454;-66
2021/05/21 06:26:32;;;;;;;1.43;0.90;;;15.00;99.90;;;;;;5037294;28;20454;-66
2021/05/21 06:28:58;;;;;;;1.63;1.17;;;15.10;99.90;;;;;;5039087;28;20534;-66
2021/05/21 06:31:25;;;;;;;5.97;1.17;;;15.20;99.90;;;;;;5038145;28;20471;-65
2021/05/21 06:33:51;;;;;;;1.10;1.00;;;15.30;99.90;;;;;;5036538;28;20463;-64
2021/05/21 06:36:18;;;;;;;1.30;1.20;;;15.50;99.90;;;;;;5036602;28;20455;-65
2021/05/21 06:38:44;;;;;;;0.80;0.80;;;15.80;99.90;;;;;;5036487;28;20496;-64
2021/05/21 06:41:10;;;;;;;1.60;1.20;;;15.80;99.90;;;;;;5036408;28;20472;-64
2021/05/21 06:43:37;;;;;;;2.70;0.97;;;15.80;99.90;;;;;;5037080;28;20452;-64
2021/05/21 06:46:04;;;;;;;0.97;0.97;;;15.80;99.90;;;;;;5036567;28;20448;-65
2021/05/21 06:48:32;;;;;;;2.20;1.10;;;15.80;99.90;;;;;;5035997;28;20511;-64
2021/05/21 06:50:59;;;;;;;0.93;0.70;;;16.00;99.90;;;;;;5036689;28;20472;-64
2021/05/21 06:53:26;;;;;;;1.57;1.13;;;16.10;99.90;;;;;;5036872;28;20460;-64
2021/05/21 06:55:54;;;;;;;2.07;1.23;;;16.00;99.90;;;;;;5037192;28;20444;-63
2021/05/21 06:58:20;;;;;;;2.73;1.30;;;16.00;99.90;;;;;;5036584;28;20448;-64
2021/05/21 07:00:47;;;;;;;1.57;1.07;;;16.20;99.90;;;;;;5035963;28;20483;-64
2021/05/21 07:03:13;;;;;;;3.10;1.20;;;16.30;99.90;;;;;;5037140;28;20440;-63
2021/05/21 07:05:40;;;;;;;0.90;0.90;;;16.40;99.90;;;;;;5036316;28;20958;-63
2021/05/21 07:08:07;;;;;;;1.13;1.00;;;16.50;99.90;;;;;;5036596;28;20483;-62
2021/05/21 07:10:34;;;;;;;1.00;1.00;;;16.50;99.90;;;;;;5036843;28;20615;-64
2021/05/21 07:13:08;;;;;;;2.90;1.30;;;16.60;99.90;;;;;;5037204;28;20744;-64
2021/05/21 07:15:34;;;;;;;2.00;1.00;;;16.50;99.90;;;;;;5047394;28;20559;-65
2021/05/21 07:18:00;;;;;;;0.80;0.80;;;16.60;99.90;;;;;;5042830;28;20444;-65
2021/05/21 07:20:26;;;;;;;0.80;0.80;;;16.50;99.90;;;;;;5036340;28;20448;-65
2021/05/21 07:22:52;;;;;;;5.73;1.50;;;16.50;99.90;;;;;;5036164;28;20452;-65
2021/05/21 07:25:19;;;;;;;1.00;0.97;;;16.50;99.90;;;;;;5035743;28;20455;-61
2021/05/21 07:27:46;;;;;;;0.80;0.80;;;16.40;99.90;;;;;;5035642;28;20547;-64
2021/05/21 07:30:13;;;;;;;1.13;1.03;;;16.40;99.90;;;;;;5035639;28;20458;-64
2021/05/21 07:32:39;;;;;;;0.90;0.90;;;16.50;99.90;;;;;;5036225;28;20538;-64
2021/05/21 07:35:07;;;;;;;2.07;1.50;;;16.40;99.90;;;;;;5036413;28;20510;-64
2021/05/21 07:37:33;;;;;;;1.10;0.93;;;16.20;99.90;;;;;;5035762;28;20931;-66
2021/05/21 07:39:59;;;;;;;1.63;1.10;;;16.20;99.90;;;;;;5036165;28;20437;-66
2021/05/21 07:42:26;;;;;;;3.10;1.30;;;16.20;99.90;;;;;;5035601;28;21058;-65
2021/05/21 07:44:53;;;;;;;1.20;1.20;;;16.20;99.90;;;;;;5035982;28;20463;-63
2021/05/21 07:47:20;;;;;;;1.00;1.00;;;16.20;99.90;;;;;;5035506;28;20476;-63
2021/05/21 07:49:46;;;;;;;0.93;0.93;;;16.20;99.90;;;;;;5035535;28;20506;-63
2021/05/21 07:52:13;;;;;;;1.03;1.03;;;16.10;99.90;;;;;;5035664;28;20526;-64
2021/05/21 07:54:39;;;;;;;0.80;0.80;;;16.00;99.90;;;;;;5036006;28;20452;-63
2021/05/21 07:57:06;;;;;;;4.53;0.90;;;16.00;99.90;;;;;;5035838;28;20482;-64
2021/05/21 07:59:32;;;;;;;34.83;7.53;;;15.90;99.90;;;;;;5035430;28;20452;-64
2021/05/21 08:01:59;;;;;;;9.40;2.47;;;16.00;99.90;;;;;;5034930;28;20994;-64
2021/05/21 08:04:25;;;;;;;3.47;1.20;;;16.10;99.90;;;;;;5034790;28;20459;-65
2021/05/21 08:06:52;;;;;;;5.60;1.13;;;16.00;99.90;;;;;;5034859;28;20452;-64
2021/05/21 08:09:18;;;;;;;1.07;1.00;;;15.90;99.90;;;;;;5034975;28;20451;-65
2021/05/21 08:11:44;;;;;;;3.80;1.10;;;16.00;99.90;;;;;;5034647;28;20511;-65
2021/05/21 08:14:11;;;;;;;9.13;1.87;;;15.90;99.90;;;;;;5036367;28;20467;-65
2021/05/21 08:16:38;;;;;;;2.30;1.10;;;16.00;99.90;;;;;;5036099;28;20466;-65
2021/05/21 08:19:05;;;;;;;5.30;1.20;;;16.00;99.90;;;;;;5035698;28;20451;-65
2021/05/21 08:21:33;;;;;;;0.90;0.90;;;16.00;99.90;;;;;;5034904;28;20471;-65
2021/05/21 08:23:59;;;;;;;5.60;0.93;;;16.10;99.90;;;;;;5035095;28;20526;-63
2021/05/21 08:26:25;;;;;;;2.60;1.23;;;16.10;99.90;;;;;;5034389;28;20923;-63
2021/05/21 08:28:52;;;;;;;22.97;5.60;;;16.10;99.90;;;;;;5034936;28;20463;-63
2021/05/21 08:31:20;;;;;;;4.90;1.87;;;16.20;99.90;;;;;;5034989;28;20978;-63
2021/05/21 08:33:46;;;;;;;1.60;1.20;;;16.20;99.90;;;;;;5034928;28;20923;-64
2021/05/21 08:36:14;;;;;;;1.80;1.23;;;16.30;99.90;;;;;;5035195;28;20823;-63
2021/05/21 08:38:44;;;;;;;2.80;1.67;;;16.30;99.90;;;;;;5034634;28;20535;-62
2021/05/21 08:41:15;;;;;;;5.30;1.50;;;16.40;99.90;;;;;;5035198;28;20507;-63
2021/05/21 08:43:45;;;;;;;1.10;1.10;;;16.50;99.90;;;;;;5036034;28;20443;-62
2021/05/21 08:46:11;;;;;;;1.07;0.87;;;16.40;99.90;;;;;;5036586;28;20456;-63
2021/05/21 08:48:37;;;;;;;1.27;1.10;;;16.50;99.90;;;;;;5045926;28;20468;-63
2021/05/21 08:51:04;;;;;;;1.27;1.17;;;16.60;99.90;;;;;;5038483;28;20874;-64
2021/05/21 08:53:31;;;;;;;0.83;0.83;;;16.60;99.90;;;;;;5034687;28;20456;-62
2021/05/21 08:55:58;;;;;;;1.37;1.20;;;16.60;99.90;;;;;;5035063;28;20519;-63
2021/05/21 08:58:25;;;;;;;5.80;1.60;;;16.60;99.90;;;;;;5034498;28;20515;-63
2021/05/21 09:00:51;;;;;;;2.30;1.27;;;16.80;99.90;;;;;;5034323;28;20924;-63
2021/05/21 09:03:21;;;;;;;4.43;1.43;;;16.70;99.90;;;;;;5034202;28;20451;-63
2021/05/21 09:06:12;;;;;;;1.80;1.57;;;16.70;99.90;;;;;;5034265;28;20452;-63
2021/05/21 09:08:42;;;;;;;2.80;1.10;;;16.70;99.90;;;;;;5034437;28;20513;-63
2021/05/21 09:11:30;;;;;;;1.40;1.03;;;16.60;99.90;;;;;;5034528;28;20476;-63
2021/05/21 09:14:01;;;;;;;4.80;1.10;;;16.60;99.90;;;;;;5033929;28;20444;-63
2021/05/21 09:16:30;;;;;;;1.27;1.17;;;16.60;99.90;;;;;;5034453;28;20436;-63
2021/05/21 09:19:09;;;;;;;1.80;1.10;;;16.60;99.90;;;;;;5034439;28;20448;-63
2021/05/21 09:21:55;;;;;;;2.23;1.03;;;16.60;99.90;;;;;;5035480;28;20531;-63
2021/05/21 09:24:26;;;;;;;6.03;1.47;;;16.70;99.90;;;;;;5036725;28;20440;-64
2021/05/21 09:26:55;;;;;;;1.23;0.93;;;16.60;99.90;;;;;;5038240;28;20458;-63
2021/05/21 09:29:41;;;;;;;1.20;1.10;;;16.70;99.90;;;;;;5038113;28;20485;-63
2021/05/21 09:32:23;;;;;;;1.17;1.00;;;16.80;99.90;;;;;;5037679;28;20562;-63
2021/05/21 09:35:05;;;;;;;4.07;1.27;;;16.80;99.90;;;;;;5038770;28;20806;-64
2021/05/21 09:37:33;;;;;;;1.67;1.00;;;16.80;99.90;;;;;;5038656;28;20432;-63
2021/05/21 09:40:07;;;;;;;2.87;1.50;;;16.70;99.90;;;;;;5037990;28;20937;-63
2021/05/21 09:42:48;;;;;;;1.87;1.13;;;16.70;99.90;;;;;;5038018;28;20475;-63
2021/05/21 09:45:21;;;;;;;3.43;1.23;;;16.90;99.90;;;;;;5037395;28;20439;-64
2021/05/21 09:47:48;;;;;;;2.73;1.10;;;16.80;99.90;;;;;;5037343;28;20471;-63
2021/05/21 09:50:15;;;;;;;1.00;0.90;;;16.80;99.90;;;;;;5038300;28;20452;-63
2021/05/21 09:52:44;;;;;;;2.20;1.10;;;16.70;99.90;;;;;;5038298;28;20451;-63
2021/05/21 09:55:11;;;;;;;1.60;0.90;;;16.70;99.90;;;;;;5037613;28;20535;-63
2021/05/21 09:57:38;;;;;;;3.43;1.20;;;16.80;99.90;;;;;;5037742;28;20486;-64
2021/05/21 10:00:06;;;;;;;2.77;0.90;;;16.70;99.90;;;;;;5038143;28;20444;-63
2021/05/21 10:02:33;;;;;;;2.60;1.10;;;16.70;99.90;;;;;;5037290;28;20480;-62
2021/05/21 10:05:01;;;;;;;4.00;1.00;;;16.80;99.90;;;;;;5037958;28;20547;-63
2021/05/21 10:07:27;;;;;;;2.70;1.10;;;16.70;99.90;;;;;;5037970;28;20476;-64
2021/05/21 10:09:54;;;;;;;3.80;1.23;;;16.70;99.90;;;;;;5039339;28;20447;-64
2021/05/21 10:12:21;;;;;;;1.33;0.70;;;16.60;99.90;;;;;;5038393;28;20476;-65
2021/05/21 10:14:51;;;;;;;1.37;1.00;;;16.60;99.90;;;;;;5038431;28;20502;-63
2021/05/21 10:17:18;;;;;;;3.80;0.90;;;16.50;99.90;;;;;;5042441;28;20456;-64
2021/05/21 10:19:46;;;;;;;3.50;1.10;;;16.50;99.90;;;;;;5045531;28;20907;-64
2021/05/21 10:22:14;;;;;;;3.43;1.03;;;16.30;99.90;;;;;;5038330;28;20982;-63
2021/05/21 10:24:44;;;;;;;0.80;0.80;;;16.20;99.90;;;;;;5037105;28;20456;-64
2021/05/21 10:27:16;;;;;;;0.80;0.80;;;16.30;99.90;;;;;;5037082;28;20440;-63
2021/05/21 10:29:49;;;;;;;3.37;1.03;;;16.20;99.90;;;;;;5037318;28;20440;-64
2021/05/21 10:32:17;;;;;;;1.43;0.70;;;16.20;99.90;;;;;;5036882;28;20471;-63
2021/05/21 10:34:47;;;;;;;1.70;0.93;;;16.40;99.90;;;;;;5036306;28;20460;-63
2021/05/21 10:37:26;;;;;;;2.23;1.47;;;16.30;99.90;;;;;;5037467;28;20449;-63
2021/05/21 10:40:00;;;;;;;1.93;0.83;;;16.30;99.90;;;;;;5036880;28;20481;-62
2021/05/21 10:42:27;;;;;;;1.80;0.73;;;16.40;99.90;;;;;;5036811;28;20834;-65
2021/05/21 10:44:55;;;;;;;0.83;0.83;;;16.40;99.90;;;;;;5036255;28;20931;-64
2021/05/21 10:47:23;;;;;;;0.90;0.90;;;16.30;99.90;;;;;;5036450;28;20806;-63
2021/05/21 10:50:10;;;;;;;2.20;0.90;;;16.40;99.90;;;;;;5036529;28;20456;-63
2021/05/21 10:52:54;;;;;;;3.50;0.80;;;16.60;99.90;;;;;;5036454;28;20483;-62
2021/05/21 10:55:37;;;;;;;2.53;1.17;;;16.60;99.90;;;;;;5036620;28;20440;-63
2021/05/21 10:58:04;;;;;;;2.57;0.93;;;16.50;99.90;;;;;;5036705;28;20436;-63
2021/05/21 11:00:31;;;;;;;0.60;0.60;;;16.50;99.90;;;;;;5036558;28;20873;-63
2021/05/21 11:02:58;;;;;;;1.03;1.03;;;16.60;99.90;;;;;;5037562;28;20447;-63
2021/05/21 11:05:28;;;;;;;4.53;0.87;;;16.60;99.90;;;;;;5036498;28;20456;-63
2021/05/21 11:07:56;;;;;;;1.10;1.00;;;16.70;99.90;;;;;;5037122;28;20571;-63
2021/05/21 11:10:39;;;;;;;4.53;1.20;;;16.70;99.90;;;;;;5036664;28;20490;-63
2021/05/21 11:13:10;;;;;;;1.43;0.90;;;17.00;99.90;;;;;;5036772;28;20440;-64
2021/05/21 11:15:42;;;;;;;1.03;1.00;;;17.20;99.90;;;;;;5036210;28;20531;-63
2021/05/21 11:18:27;;;;;;;3.13;0.77;;;17.20;99.90;;;;;;5036662;28;20474;-63
2021/05/21 11:21:02;;;;;;;1.80;1.00;;;17.00;99.90;;;;;;5034799;28;20982;-64
2021/05/21 11:23:33;;;;;;;1.77;1.13;;;17.30;99.90;;;;;;5036358;28;20436;-62
2021/05/21 11:26:24;;;;;;;3.80;1.10;;;17.10;99.90;;;;;;5036663;28;20448;-63
2021/05/21 11:28:54;;;;;;;1.53;1.00;;;17.10;99.90;;;;;;5036459;28;20502;-63
2021/05/21 11:31:23;;;;;;;0.80;0.80;;;17.20;99.90;;;;;;5036326;28;20977;-63
2021/05/21 11:33:51;;;;;;;1.80;1.13;;;17.10;99.90;;;;;;5036166;28;20506;-63
2021/05/21 11:36:18;;;;;;;5.00;0.90;;;17.20;99.90;;;;;;5036784;28;20475;-64
2021/05/21 11:38:45;;;;;;;1.53;0.90;;;17.20;99.90;;;;;;5036679;28;20456;-64
2021/05/21 11:41:12;;;;;;;3.03;1.07;;;17.40;99.90;;;;;;5037130;28;20475;-63
2021/05/21 11:43:40;;;;;;;1.47;0.90;;;17.60;99.90;;;;;;5036223;28;20471;-63
2021/05/21 11:46:13;;;;;;;1.60;0.70;;;17.70;99.90;;;;;;5035553;28;20456;-63
2021/05/21 11:48:42;;;;;;;1.90;1.00;;;17.70;99.90;;;;;;5036611;28;20460;-64
2021/05/21 11:51:14;;;;;;;4.10;1.20;;;17.80;99.90;;;;;;5045939;28;20472;-63
2021/05/21 11:53:47;;;;;;;1.53;0.63;;;17.90;99.90;;;;;;5037832;28;20442;-64
2021/05/21 11:56:14;;;;;;;2.00;1.27;;;17.90;99.90;;;;;;5036438;28;20786;-62
2021/05/21 11:58:41;;;;;;;1.93;0.97;;;17.80;99.90;;;;;;5038238;28;20448;-63
2021/05/21 12:01:07;;;;;;;0.70;0.70;;;17.60;99.90;;;;;;5042587;28;20537;-64
2021/05/21 12:03:37;;;;;;;1.80;1.70;;;17.60;99.90;;;;;;5036234;28;20519;-65
2021/05/21 12:06:04;;;;;;;0.87;0.80;;;17.50;99.90;;;;;;5035899;28;20452;-66
2021/05/21 12:08:31;;;;;;;0.90;0.90;;;17.50;99.90;;;;;;5035590;28;20480;-64
2021/05/21 12:10:58;;;;;;;0.80;0.80;;;17.40;99.90;;;;;;5035145;28;20472;-64
2021/05/21 12:13:29;;;;;;;5.17;1.00;;;17.30;99.90;;;;;;5035333;28;20506;-63
2021/05/21 12:16:12;;;;;;;2.50;1.10;;;17.20;99.90;;;;;;5035276;28;20490;-64
2021/05/21 12:18:38;;;;;;;0.80;0.80;;;17.20;99.90;;;;;;5034870;28;20910;-63
2021/05/21 12:21:06;;;;;;;1.93;0.90;;;17.30;99.90;;;;;;5035223;28;20472;-63
2021/05/21 12:23:36;;;;;;;2.23;0.83;;;17.50;99.90;;;;;;5035113;28;20448;-64
2021/05/21 12:26:03;;;;;;;0.93;0.83;;;17.60;99.90;;;;;;5034912;28;20586;-64
2021/05/21 12:28:30;;;;;;;3.70;0.90;;;17.70;99.70;;;;;;5035625;28;20774;-65
2021/05/21 12:31:01;;;;;;;1.30;0.90;;;17.70;99.90;;;;;;5034966;28;20475;-62
2021/05/21 12:33:28;;;;;;;0.80;0.80;;;17.60;99.40;;;;;;5034786;28;20456;-65
2021/05/21 12:35:54;;;;;;;1.23;0.80;;;17.50;99.10;;;;;;5034824;28;20456;-64
2021/05/21 12:38:28;;;;;;;1.13;0.70;;;17.50;99.10;;;;;;5034962;28;20494;-64
2021/05/21 12:40:56;;;;;;;0.80;0.80;;;17.40;99.20;;;;;;5034657;28;20476;-63
2021/05/21 12:43:22;;;;;;;2.10;0.93;;;17.30;99.00;;;;;;5035132;28;20544;-63
2021/05/21 12:46:02;;;;;;;2.50;0.93;;;16.90;99.10;;;;;;5034261;28;20924;-63
2021/05/21 12:48:36;;;;;;;0.80;0.80;;;16.90;99.30;;;;;;5034479;28;20475;-64
2021/05/21 12:51:19;;;;;;;0.70;0.70;;;17.00;99.10;;;;;;5033942;28;21001;-64
2021/05/21 12:53:47;;;;;;;3.20;1.00;;;17.10;99.10;;;;;;5032848;28;20452;-63
2021/05/21 12:56:34;;;;;;;2.20;0.90;;;17.00;97.90;;;;;;5034639;28;20444;-64
2021/05/21 12:59:05;;;;;;;0.90;0.90;;;17.10;98.50;;;;;;5034204;28;20444;-64
2021/05/21 13:01:32;;;;;;;1.10;1.00;;;17.10;98.20;;;;;;5034025;28;20486;-65
2021/05/21 13:03:58;;;;;;;0.97;0.97;;;17.00;97.90;;;;;;5034321;28;20448;-64
2021/05/21 13:06:30;;;;;;;1.10;1.00;;;17.10;98.40;;;;;;5034875;28;20448;-66
2021/05/21 13:09:01;;;;;;;1.20;0.90;;;17.20;98.40;;;;;;5034433;28;20464;-64
2021/05/21 13:11:28;;;;;;;1.80;1.00;;;17.20;97.90;;;;;;5034338;28;20515;-64
2021/05/21 13:14:01;;;;;;;1.97;0.93;;;17.30;98.30;;;;;;5034166;28;20448;-65
2021/05/21 13:16:41;;;;;;;0.97;0.97;;;17.30;98.00;;;;;;5034527;28;20486;-64
2021/05/21 13:19:08;;;;;;;5.77;1.23;;;17.30;96.90;;;;;;5036175;28;20454;-66
2021/05/21 13:21:35;;;;;;;1.83;1.10;;;17.10;95.80;;;;;;5042705;28;20498;-64
2021/05/21 13:24:04;;;;;;;0.80;0.80;;;17.00;95.90;;;;;;5038494;28;20935;-63
2021/05/21 13:26:44;;;;;;;1.57;0.80;;;17.10;96.00;;;;;;5035656;28;20835;-64
2021/05/21 13:29:10;;;;;;;0.60;0.60;;;17.20;96.20;;;;;;5043616;28;20482;-63
2021/05/21 13:31:36;;;;;;;1.37;1.03;;;17.20;96.40;;;;;;5044891;28;20480;-64
2021/05/21 13:34:03;;;;;;;2.33;0.80;;;17.00;94.90;;;;;;5035061;28;20455;-65
2021/05/21 13:36:29;;;;;;;1.50;1.20;;;17.00;94.90;;;;;;5034679;28;20459;-67
2021/05/21 13:38:55;;;;;;;1.80;1.03;;;16.90;95.00;;;;;;5035522;28;20457;-66
2021/05/21 13:41:23;;;;;;;1.17;0.80;;;17.00;95.60;;;;;;5035219;28;20534;-65
2021/05/21 13:43:49;;;;;;;1.27;1.10;;;17.10;95.70;;;;;;5035415;28;20458;-65
2021/05/21 13:46:15;;;;;;;0.70;0.70;;;17.10;96.60;;;;;;5035299;28;20502;-65
2021/05/21 13:48:41;;;;;;;1.20;1.20;;;17.20;97.50;;;;;;5035097;28;20474;-63
2021/05/21 13:51:07;;;;;;;1.23;1.00;;;17.10;97.80;;;;;;5034521;28;20978;-63
2021/05/21 13:53:34;;;;;;;1.80;1.20;;;17.00;97.80;;;;;;5035268;28;20463;-64
2021/05/21 13:56:00;;;;;;;0.83;0.70;;;16.80;97.70;;;;;;5034339;28;20463;-63
2021/05/21 13:58:27;;;;;;;1.33;1.20;;;16.80;98.00;;;;;;5033977;28;20514;-63
2021/05/21 14:00:53;;;;;;;1.47;1.37;;;16.80;98.60;;;;;;5033673;28;20484;-63
2021/05/21 14:03:19;;;;;;;0.90;0.90;;;16.70;98.70;;;;;;5033879;28;20456;-66
2021/05/21 14:05:45;;;;;;;1.17;1.03;;;16.70;98.00;;;;;;5034387;28;20462;-66
2021/05/21 14:08:12;;;;;;;1.50;0.93;;;16.60;97.90;;;;;;5034551;28;20476;-64
2021/05/21 14:10:38;;;;;;;1.10;1.03;;;16.60;98.80;;;;;;5035565;28;20836;-66
2021/05/21 14:13:04;;;;;;;2.57;0.90;;;16.60;99.20;;;;;;5038473;28;20463;-65
2021/05/21 14:15:31;;;;;;;1.17;1.10;;;16.70;98.90;;;;;;5037678;28;20505;-65
2021/05/21 14:17:57;;;;;;;1.80;1.27;;;16.70;99.20;;;;;;5037594;28;20467;-62
2021/05/21 14:20:24;;;;;;;1.20;1.00;;;16.70;99.60;;;;;;5037594;28;20455;-62
2021/05/21 14:22:51;;;;;;;1.73;1.10;;;16.70;99.60;;;;;;5037325;28;20465;-62
2021/05/21 14:25:22;;;;;;;2.20;1.17;;;16.80;99.70;;;;;;5037455;28;20452;-62
2021/05/21 14:27:48;;;;;;;4.03;1.60;;;16.70;98.70;;;;;;5037299;28;20440;-62
2021/05/21 14:30:15;;;;;;;1.70;1.00;;;16.70;99.20;;;;;;5037458;28;20452;-63
2021/05/21 14:32:43;;;;;;;1.43;1.00;;;16.70;99.80;;;;;;5037820;28;20504;-64
2021/05/21 14:35:10;;;;;;;1.27;1.07;;;16.40;99.10;;;;;;5036816;28;20539;-65
2021/05/21 14:37:36;;;;;;;1.43;1.33;;;16.30;99.70;;;;;;5037856;28;20486;-62
2021/05/21 14:40:03;;;;;;;1.03;0.90;;;16.30;99.90;;;;;;5037671;28;20451;-64
2021/05/21 14:42:30;;;;;;;1.20;1.20;;;16.30;99.90;;;;;;5037066;28;20510;-64
2021/05/21 14:44:56;;;;;;;1.23;1.10;;;16.30;99.90;;;;;;5037261;28;20477;-63
2021/05/21 14:47:22;;;;;;;1.37;1.10;;;16.20;99.90;;;;;;5037300;28;20456;-63
2021/05/21 14:49:49;;;;;;;1.13;1.07;;;16.10;99.90;;;;;;5036797;28;20962;-62
2021/05/21 14:52:21;;;;;;;3.43;0.90;;;16.00;99.90;;;;;;5038030;28;20472;-63
2021/05/21 14:54:48;;;;;;;0.80;0.80;;;16.10;99.90;;;;;;5042446;28;20994;-63
2021/05/21 14:57:16;;;;;;;0.87;0.80;;;16.00;99.90;;;;;;5039654;28;20456;-63
2021/05/21 14:59:42;;;;;;;1.30;1.20;;;15.90;99.90;;;;;;5037868;28;20804;-64
2021/05/21 15:02:08;;;;;;;1.40;1.20;;;16.00;99.90;;;;;;5036720;28;20475;-64
2021/05/21 15:04:38;;;;;;;0.87;0.83;;;15.80;99.90;;;;;;5037221;28;20499;-63
2021/05/21 15:07:05;;;;;;;1.13;0.83;;;15.70;99.90;;;;;;5036369;28;20455;-63
2021/05/21 15:09:32;;;;;;;1.03;1.00;;;15.70;99.90;;;;;;5036525;28;20559;-63
2021/05/21 15:11:58;;;;;;;1.57;0.90;;;15.80;99.90;;;;;;5038196;28;20476;-62
2021/05/21 15:14:26;;;;;;;2.87;1.13;;;16.00;99.90;;;;;;5038524;28;20456;-62
2021/05/21 15:17:02;;;;;;;2.33;0.90;;;15.90;99.90;;;;;;5036429;28;20451;-62
2021/05/21 15:24:59;;;;;;;0.80;0.80;;;15.60;99.90;;;;;;5036659;28;20922;-63
2021/05/21 15:27:25;;;;;;;0.87;0.87;;;15.60;99.90;;;;;;5036291;28;20992;-65
2021/05/21 15:29:52;;;;;;;0.90;0.90;;;15.40;99.90;;;;;;5036569;28;20560;-66
2021/05/21 15:32:18;;;;;;;1.50;0.70;;;15.40;99.90;;;;;;5037148;28;20476;-65
2021/05/21 15:34:45;;;;;;;0.83;0.83;;;15.20;99.90;;;;;;5036947;28;20463;-65
2021/05/21 15:37:14;;;;;;;1.17;0.73;;;15.20;99.90;;;;;;5036850;28;20456;-65
2021/05/21 15:39:41;;;;;;;0.93;0.93;;;15.10;99.90;;;;;;5036912;28;20459;-64
2021/05/21 15:42:32;;;;;;;1.00;1.00;;;15.10;99.90;;;;;;5036454;28;20476;-66
2021/05/21 15:47:43;;;;;;;1.70;1.00;;;14.90;99.90;;;;;;5036136;28;20415;-66
2021/05/21 15:50:14;;;;;;;0.50;0.50;;;14.80;99.90;;;;;;5036954;28;20440;-65
2021/05/21 15:52:47;;;;;;;1.80;0.77;;;14.90;99.90;;;;;;5035869;28;20471;-66
2021/05/21 15:55:19;;;;;;;2.37;0.80;;;14.90;99.90;;;;;;5037062;28;20444;-65
2021/05/21 15:57:51;;;;;;;1.17;1.10;;;14.90;99.90;;;;;;5035934;28;20494;-65
2021/05/21 16:00:17;;;;;;;1.23;0.60;;;14.80;99.90;;;;;;5037053;28;20437;-65
2021/05/21 16:02:44;;;;;;;1.73;0.80;;;14.80;99.90;;;;;;5036393;28;20762;-66
2021/05/21 16:05:12;;;;;;;1.70;0.73;;;14.80;99.90;;;;;;5035565;28;20865;-67
2021/05/21 16:07:38;;;;;;;1.00;0.90;;;14.80;99.90;;;;;;5035632;28;20452;-67
2021/05/21 16:10:10;;;;;;;0.60;0.60;;;14.80;99.90;;;;;;5035637;28;20553;-66
2021/05/21 16:12:36;;;;;;;3.37;0.70;;;14.60;99.90;;;;;;5036317;28;20479;-68
2021/05/21 16:15:03;;;;;;;0.77;0.60;;;14.60;99.90;;;;;;5036193;28;20459;-68
2021/05/21 16:17:29;;;;;;;0.80;0.80;;;14.70;99.90;;;;;;5037277;28;20456;-68
2021/05/21 16:19:56;;;;;;;0.73;0.73;;;14.70;99.90;;;;;;5036927;28;20451;-67
2021/05/21 16:22:23;;;;;;;0.80;0.80;;;14.90;99.90;;;;;;5036646;28;20905;-67
2021/05/21 16:24:49;;;;;;;1.30;0.90;;;15.00;99.90;;;;;;5036079;28;20452;-64
2021/05/21 16:27:18;;;;;;;1.80;0.90;;;15.00;99.90;;;;;;5045250;28;20456;-63
2021/05/21 16:29:44;;;;;;;1.17;0.60;;;15.00;99.90;;;;;;5037669;28;21065;-63
2021/05/21 16:32:10;;;;;;;1.13;0.80;;;15.10;99.90;;;;;;5035171;28;21060;-64
2021/05/21 16:34:37;;;;;;;3.40;0.97;;;15.00;99.90;;;;;;5034061;28;20510;-64
2021/05/21 16:37:04;;;;;;;0.73;0.73;;;15.10;99.90;;;;;;5035088;28;20452;-65
2021/05/21 16:39:31;;;;;;;1.03;0.90;;;15.00;99.90;;;;;;5034663;28;20445;-64
2021/05/21 16:41:57;;;;;;;0.70;0.70;;;15.10;99.90;;;;;;5034819;28;20479;-63
2021/05/21 16:44:25;;;;;;;0.80;0.80;;;15.20;99.90;;;;;;5034539;28;20452;-64
2021/05/21 16:46:51;;;;;;;0.60;0.60;;;15.30;99.90;;;;;;5035285;28;20460;-64
2021/05/21 16:49:17;;;;;;;1.97;1.60;;;15.30;99.90;;;;;;5035264;28;20487;-64
2021/05/21 16:51:44;;;;;;;0.70;0.70;;;15.30;99.90;;;;;;5034983;28;20480;-64
2021/05/21 16:54:10;;;;;;;0.77;0.77;;;15.00;99.90;;;;;;5035178;28;20456;-65
2021/05/21 16:56:36;;;;;;;0.50;0.50;;;15.00;99.90;;;;;;5034973;28;20452;-70
2021/05/21 16:59:03;;;;;;;0.80;0.80;;;14.90;99.90;;;;;;5034741;28;20458;-65
2021/05/21 17:01:30;;;;;;;0.60;0.60;;;14.70;99.90;;;;;;5034657;28;20513;-65
2021/05/21 17:03:57;;;;;;;0.67;0.67;;;14.80;99.90;;;;;;5035188;28;20522;-63